LFRS/NTE METAR and TAF weather

Enter ICAO airport designator
Station Type Date Time Source
LFRS METAR 2020/01/21 15:30 UTC NOAA

LFRS 211530Z AUTO 04010KT 360V070 CAVOK 06/M00 Q1036 NOSIG


Station Type Date Time Source
LFRS Decoded METAR 2020/01/21 15:30 UTC NOAA

Nantes, France (LFRS) 47-10N 001-36W 27M
Jan 21, 2020 - 10:30 AM EST / 2020.01.21 1530 UTC
Wind: from the NE (040 degrees) at 12 MPH (10 KT) (direction variable):0
Visibility: greater than 7 mile(s):0
Temperature: 42 F (6 C)
Dew Point: 32 F (0 C)
Relative Humidity: 65%
Pressure (altimeter): 30.59 in. Hg (1036 hPa)
ob: LFRS 211530Z AUTO 04010KT 360V070 CAVOK 06/M00 Q1036 NOSIG
cycle: 15

Station Type Date Time Source
LFRS TAF 2020/01/21 12:21 UTC NOAA

TAF LFRS 211100Z 2112/2218 05010KT CAVOK

Example: see airport list